sensor_id;sensor_type;location;lat;lon;timestamp;P1;durP1;ratioP1;P2;durP2;ratioP2
75603;SDS011;64187;51.010;13.792;2023-07-29T00:59:21;3.85;;;1.70;;
75603;SDS011;64187;51.010;13.792;2023-07-29T01:04:21;1.50;;;1.40;;
75603;SDS011;64187;51.010;13.792;2023-07-29T02:36:13;1.98;;;1.75;;
75603;SDS011;64187;51.010;13.792;2023-07-29T02:46:40;2.30;;;2.10;;
75603;SDS011;64187;51.010;13.792;2023-07-29T02:57:13;3.60;;;2.00;;
75603;SDS011;64187;51.010;13.792;2023-07-29T03:24:04;2.85;;;1.88;;
75603;SDS011;64187;51.010;13.792;2023-07-29T03:29:03;2.00;;;1.80;;
75603;SDS011;64187;51.010;13.792;2023-07-29T03:50:28;2.85;;;2.40;;
75603;SDS011;64187;51.010;13.792;2023-07-29T04:06:32;2.40;;;1.60;;
75603;SDS011;64187;51.010;13.792;2023-07-29T04:11:32;2.65;;;1.85;;
75603;SDS011;64187;51.010;13.792;2023-07-29T04:16:31;3.20;;;1.55;;
75603;SDS011;64187;51.010;13.792;2023-07-29T04:32:43;2.45;;;1.60;;
75603;SDS011;64187;51.010;13.792;2023-07-29T04:37:43;1.75;;;1.20;;
75603;SDS011;64187;51.010;13.792;2023-07-29T05:16:40;0.65;;;0.65;;
75603;SDS011;64187;51.010;13.792;2023-07-29T05:38:25;1.58;;;0.95;;
75603;SDS011;64187;51.010;13.792;2023-07-29T06:16:12;0.80;;;0.80;;
75603;SDS011;64187;51.010;13.792;2023-07-29T06:32:21;1.13;;;1.02;;
75603;SDS011;64187;51.010;13.792;2023-07-29T06:37:20;1.95;;;0.80;;
75603;SDS011;64187;51.010;13.792;2023-07-29T07:43:43;1.05;;;0.90;;
75603;SDS011;64187;51.010;13.792;2023-07-29T07:48:42;2.58;;;1.13;;
75603;SDS011;64187;51.010;13.792;2023-07-29T08:10:57;0.93;;;0.82;;
75603;SDS011;64187;51.010;13.792;2023-07-29T08:15:56;1.00;;;0.90;;
75603;SDS011;64187;51.010;13.792;2023-07-29T08:20:56;1.00;;;0.80;;
75603;SDS011;64187;51.010;13.792;2023-07-29T08:26:03;0.77;;;0.63;;
75603;SDS011;64187;51.010;13.792;2023-07-29T08:42:36;1.77;;;0.93;;
75603;SDS011;64187;51.010;13.792;2023-07-29T08:47:37;1.52;;;0.63;;
75603;SDS011;64187;51.010;13.792;2023-07-29T08:52:36;0.85;;;0.68;;
75603;SDS011;64187;51.010;13.792;2023-07-29T08:57:37;1.27;;;0.80;;
75603;SDS011;64187;51.010;13.792;2023-07-29T09:02:36;1.50;;;0.88;;
75603;SDS011;64187;51.010;13.792;2023-07-29T09:07:35;1.60;;;1.13;;
75603;SDS011;64187;51.010;13.792;2023-07-29T09:12:35;1.88;;;0.90;;
75603;SDS011;64187;51.010;13.792;2023-07-29T09:17:34;0.80;;;0.73;;
75603;SDS011;64187;51.010;13.792;2023-07-29T09:22:33;0.95;;;0.85;;
75603;SDS011;64187;51.010;13.792;2023-07-29T09:27:33;1.50;;;1.10;;
75603;SDS011;64187;51.010;13.792;2023-07-29T09:32:36;1.50;;;0.90;;
75603;SDS011;64187;51.010;13.792;2023-07-29T09:37:38;1.50;;;1.40;;
75603;SDS011;64187;51.010;13.792;2023-07-29T09:42:37;1.23;;;1.13;;
75603;SDS011;64187;51.010;13.792;2023-07-29T09:47:36;1.83;;;0.98;;
75603;SDS011;64187;51.010;13.792;2023-07-29T09:52:35;1.10;;;0.90;;
75603;SDS011;64187;51.010;13.792;2023-07-29T09:57:33;1.10;;;1.00;;
75603;SDS011;64187;51.010;13.792;2023-07-29T10:02:34;1.85;;;1.15;;
75603;SDS011;64187;51.010;13.792;2023-07-29T10:07:36;2.47;;;1.20;;
75603;SDS011;64187;51.010;13.792;2023-07-29T10:12:36;3.45;;;1.30;;
75603;SDS011;64187;51.010;13.792;2023-07-29T10:17:36;1.90;;;1.05;;
75603;SDS011;64187;51.010;13.792;2023-07-29T10:22:37;1.60;;;1.10;;
75603;SDS011;64187;51.010;13.792;2023-07-29T10:27:47;2.33;;;1.08;;
75603;SDS011;64187;51.010;13.792;2023-07-29T10:33:03;1.27;;;0.75;;
75603;SDS011;64187;51.010;13.792;2023-07-29T10:38:04;1.48;;;0.90;;
75603;SDS011;64187;51.010;13.792;2023-07-29T10:43:10;1.92;;;1.10;;
75603;SDS011;64187;51.010;13.792;2023-07-29T10:48:11;1.55;;;0.98;;
75603;SDS011;64187;51.010;13.792;2023-07-29T10:53:11;1.50;;;1.02;;
75603;SDS011;64187;51.010;13.792;2023-07-29T10:58:14;1.63;;;1.20;;
75603;SDS011;64187;51.010;13.792;2023-07-29T11:03:17;2.05;;;1.30;;
75603;SDS011;64187;51.010;13.792;2023-07-29T11:08:33;2.55;;;1.00;;
75603;SDS011;64187;51.010;13.792;2023-07-29T11:13:34;2.08;;;0.80;;
75603;SDS011;64187;51.010;13.792;2023-07-29T11:18:35;2.03;;;0.80;;
75603;SDS011;64187;51.010;13.792;2023-07-29T11:23:38;1.42;;;1.00;;
75603;SDS011;64187;51.010;13.792;2023-07-29T11:28:39;1.80;;;0.90;;
75603;SDS011;64187;51.010;13.792;2023-07-29T11:33:39;1.58;;;0.90;;
75603;SDS011;64187;51.010;13.792;2023-07-29T11:38:38;1.30;;;0.98;;
75603;SDS011;64187;51.010;13.792;2023-07-29T11:43:38;1.42;;;0.77;;
75603;SDS011;64187;51.010;13.792;2023-07-29T11:48:37;1.83;;;0.80;;
75603;SDS011;64187;51.010;13.792;2023-07-29T11:53:35;1.52;;;0.95;;
75603;SDS011;64187;51.010;13.792;2023-07-29T11:58:35;1.95;;;1.02;;
75603;SDS011;64187;51.010;13.792;2023-07-29T12:03:36;2.10;;;1.25;;
75603;SDS011;64187;51.010;13.792;2023-07-29T12:08:34;0.88;;;0.80;;
75603;SDS011;64187;51.010;13.792;2023-07-29T12:13:33;2.58;;;1.00;;
75603;SDS011;64187;51.010;13.792;2023-07-29T12:18:35;1.58;;;1.00;;
75603;SDS011;64187;51.010;13.792;2023-07-29T12:23:34;0.88;;;0.70;;
75603;SDS011;64187;51.010;13.792;2023-07-29T12:28:34;1.30;;;1.10;;
75603;SDS011;64187;51.010;13.792;2023-07-29T12:33:34;1.27;;;0.93;;
75603;SDS011;64187;51.010;13.792;2023-07-29T12:38:35;1.90;;;0.80;;
75603;SDS011;64187;51.010;13.792;2023-07-29T12:43:34;1.60;;;1.02;;
75603;SDS011;64187;51.010;13.792;2023-07-29T12:48:33;1.77;;;1.10;;
75603;SDS011;64187;51.010;13.792;2023-07-29T12:53:32;1.55;;;0.90;;
75603;SDS011;64187;51.010;13.792;2023-07-29T12:58:31;1.02;;;0.80;;
75603;SDS011;64187;51.010;13.792;2023-07-29T13:03:30;1.48;;;0.85;;
75603;SDS011;64187;51.010;13.792;2023-07-29T13:08:29;0.80;;;0.60;;
75603;SDS011;64187;51.010;13.792;2023-07-29T13:13:29;3.58;;;1.00;;
75603;SDS011;64187;51.010;13.792;2023-07-29T13:18:28;0.70;;;0.68;;
75603;SDS011;64187;51.010;13.792;2023-07-29T13:23:27;1.38;;;1.27;;
75603;SDS011;64187;51.010;13.792;2023-07-29T13:28:28;0.73;;;0.73;;
75603;SDS011;64187;51.010;13.792;2023-07-29T13:33:27;1.02;;;0.90;;
75603;SDS011;64187;51.010;13.792;2023-07-29T13:38:28;1.77;;;0.85;;
75603;SDS011;64187;51.010;13.792;2023-07-29T13:43:27;1.00;;;0.90;;
75603;SDS011;64187;51.010;13.792;2023-07-29T13:48:26;1.50;;;0.90;;
75603;SDS011;64187;51.010;13.792;2023-07-29T13:53:25;3.22;;;1.27;;
75603;SDS011;64187;51.010;13.792;2023-07-29T13:58:27;1.40;;;1.08;;
75603;SDS011;64187;51.010;13.792;2023-07-29T14:03:26;1.20;;;1.10;;
75603;SDS011;64187;51.010;13.792;2023-07-29T14:08:24;1.25;;;0.85;;
75603;SDS011;64187;51.010;13.792;2023-07-29T14:13:23;1.08;;;0.98;;
75603;SDS011;64187;51.010;13.792;2023-07-29T14:18:22;2.75;;;1.17;;
75603;SDS011;64187;51.010;13.792;2023-07-29T14:23:21;2.05;;;0.73;;
75603;SDS011;64187;51.010;13.792;2023-07-29T14:28:20;1.15;;;1.05;;
75603;SDS011;64187;51.010;13.792;2023-07-29T14:33:23;1.83;;;0.82;;
75603;SDS011;64187;51.010;13.792;2023-07-29T14:38:24;1.38;;;0.93;;
75603;SDS011;64187;51.010;13.792;2023-07-29T14:43:24;1.25;;;0.90;;
75603;SDS011;64187;51.010;13.792;2023-07-29T14:48:25;1.55;;;1.00;;
75603;SDS011;64187;51.010;13.792;2023-07-29T14:53:29;1.52;;;0.70;;
75603;SDS011;64187;51.010;13.792;2023-07-29T14:58:33;2.03;;;1.02;;
75603;SDS011;64187;51.010;13.792;2023-07-29T15:03:36;1.05;;;0.93;;
75603;SDS011;64187;51.010;13.792;2023-07-29T15:08:35;1.92;;;1.40;;
75603;SDS011;64187;51.010;13.792;2023-07-29T15:13:34;1.45;;;1.13;;
75603;SDS011;64187;51.010;13.792;2023-07-29T15:18:33;3.17;;;0.77;;
75603;SDS011;64187;51.010;13.792;2023-07-29T15:23:32;1.05;;;0.68;;
75603;SDS011;64187;51.010;13.792;2023-07-29T15:28:31;1.13;;;1.02;;
75603;SDS011;64187;51.010;13.792;2023-07-29T15:33:30;0.75;;;0.73;;
75603;SDS011;64187;51.010;13.792;2023-07-29T15:38:29;1.10;;;0.70;;
75603;SDS011;64187;51.010;13.792;2023-07-29T15:43:28;1.05;;;0.75;;
75603;SDS011;64187;51.010;13.792;2023-07-29T15:48:27;1.25;;;1.15;;
75603;SDS011;64187;51.010;13.792;2023-07-29T15:53:26;2.08;;;1.10;;
75603;SDS011;64187;51.010;13.792;2023-07-29T15:58:24;0.80;;;0.75;;
75603;SDS011;64187;51.010;13.792;2023-07-29T16:03:23;1.17;;;0.90;;
75603;SDS011;64187;51.010;13.792;2023-07-29T16:08:23;0.95;;;0.85;;
75603;SDS011;64187;51.010;13.792;2023-07-29T16:13:22;1.40;;;0.80;;
75603;SDS011;64187;51.010;13.792;2023-07-29T16:18:21;1.70;;;1.00;;
75603;SDS011;64187;51.010;13.792;2023-07-29T16:23:20;1.10;;;1.00;;
75603;SDS011;64187;51.010;13.792;2023-07-29T16:28:19;1.70;;;1.42;;
75603;SDS011;64187;51.010;13.792;2023-07-29T16:33:18;1.83;;;1.35;;
75603;SDS011;64187;51.010;13.792;2023-07-29T16:38:17;1.58;;;1.17;;
75603;SDS011;64187;51.010;13.792;2023-07-29T16:43:16;1.60;;;1.13;;
75603;SDS011;64187;51.010;13.792;2023-07-29T16:48:15;2.17;;;1.42;;
75603;SDS011;64187;51.010;13.792;2023-07-29T16:53:13;1.25;;;0.88;;
75603;SDS011;64187;51.010;13.792;2023-07-29T16:58:12;1.13;;;0.90;;
75603;SDS011;64187;51.010;13.792;2023-07-29T17:03:11;2.30;;;1.10;;
75603;SDS011;64187;51.010;13.792;2023-07-29T17:08:10;3.50;;;1.10;;
75603;SDS011;64187;51.010;13.792;2023-07-29T17:13:09;3.33;;;1.38;;
75603;SDS011;64187;51.010;13.792;2023-07-29T17:18:08;4.05;;;1.48;;
75603;SDS011;64187;51.010;13.792;2023-07-29T17:23:07;3.42;;;1.20;;
75603;SDS011;64187;51.010;13.792;2023-07-29T17:28:05;2.97;;;1.38;;
75603;SDS011;64187;51.010;13.792;2023-07-29T17:33:05;4.15;;;1.73;;
75603;SDS011;64187;51.010;13.792;2023-07-29T17:38:04;4.05;;;1.80;;
75603;SDS011;64187;51.010;13.792;2023-07-29T17:43:10;4.43;;;1.30;;
75603;SDS011;64187;51.010;13.792;2023-07-29T17:48:09;4.00;;;1.85;;
75603;SDS011;64187;51.010;13.792;2023-07-29T17:53:08;5.57;;;1.67;;
75603;SDS011;64187;51.010;13.792;2023-07-29T17:58:07;2.95;;;1.38;;
75603;SDS011;64187;51.010;13.792;2023-07-29T18:03:06;2.60;;;1.70;;
75603;SDS011;64187;51.010;13.792;2023-07-29T18:08:05;4.45;;;2.17;;
75603;SDS011;64187;51.010;13.792;2023-07-29T18:13:04;4.65;;;2.10;;
75603;SDS011;64187;51.010;13.792;2023-07-29T18:18:06;3.78;;;1.92;;
75603;SDS011;64187;51.010;13.792;2023-07-29T18:23:05;2.38;;;1.73;;
75603;SDS011;64187;51.010;13.792;2023-07-29T18:28:03;3.42;;;1.90;;
75603;SDS011;64187;51.010;13.792;2023-07-29T18:33:02;3.80;;;1.88;;
75603;SDS011;64187;51.010;13.792;2023-07-29T18:38:01;3.20;;;1.80;;
75603;SDS011;64187;51.010;13.792;2023-07-29T18:43:00;3.65;;;1.98;;
75603;SDS011;64187;51.010;13.792;2023-07-29T18:47:59;2.53;;;1.75;;
75603;SDS011;64187;51.010;13.792;2023-07-29T18:52:58;3.05;;;1.63;;
75603;SDS011;64187;51.010;13.792;2023-07-29T18:57:57;7.13;;;2.25;;
75603;SDS011;64187;51.010;13.792;2023-07-29T19:02:56;3.60;;;2.45;;
75603;SDS011;64187;51.010;13.792;2023-07-29T19:07:55;4.07;;;2.10;;
75603;SDS011;64187;51.010;13.792;2023-07-29T19:12:54;5.22;;;2.83;;
75603;SDS011;64187;51.010;13.792;2023-07-29T19:17:55;7.13;;;2.65;;
75603;SDS011;64187;51.010;13.792;2023-07-29T19:22:54;4.65;;;2.15;;
75603;SDS011;64187;51.010;13.792;2023-07-29T19:27:53;4.13;;;1.95;;
75603;SDS011;64187;51.010;13.792;2023-07-29T19:32:52;3.45;;;2.25;;
75603;SDS011;64187;51.010;13.792;2023-07-29T19:37:51;3.97;;;2.03;;
75603;SDS011;64187;51.010;13.792;2023-07-29T19:42:55;2.50;;;1.75;;
75603;SDS011;64187;51.010;13.792;2023-07-29T19:47:54;6.65;;;2.22;;
75603;SDS011;64187;51.010;13.792;2023-07-29T19:52:55;4.68;;;2.35;;
75603;SDS011;64187;51.010;13.792;2023-07-29T19:57:54;3.85;;;1.83;;
75603;SDS011;64187;51.010;13.792;2023-07-29T20:02:53;3.95;;;1.98;;
75603;SDS011;64187;51.010;13.792;2023-07-29T20:07:51;3.78;;;2.10;;
75603;SDS011;64187;51.010;13.792;2023-07-29T20:12:51;3.45;;;1.50;;
75603;SDS011;64187;51.010;13.792;2023-07-29T20:17:50;1.98;;;1.20;;
75603;SDS011;64187;51.010;13.792;2023-07-29T20:22:49;2.30;;;1.40;;
75603;SDS011;64187;51.010;13.792;2023-07-29T20:27:48;3.47;;;1.70;;
75603;SDS011;64187;51.010;13.792;2023-07-29T20:32:46;2.92;;;1.23;;
75603;SDS011;64187;51.010;13.792;2023-07-29T20:37:45;3.10;;;1.40;;
75603;SDS011;64187;51.010;13.792;2023-07-29T20:42:44;4.55;;;1.17;;
75603;SDS011;64187;51.010;13.792;2023-07-29T20:47:43;2.28;;;1.40;;
75603;SDS011;64187;51.010;13.792;2023-07-29T20:52:42;4.28;;;1.30;;
75603;SDS011;64187;51.010;13.792;2023-07-29T20:57:41;3.90;;;1.55;;
75603;SDS011;64187;51.010;13.792;2023-07-29T21:02:43;3.53;;;1.83;;
75603;SDS011;64187;51.010;13.792;2023-07-29T21:07:43;3.28;;;1.33;;
75603;SDS011;64187;51.010;13.792;2023-07-29T21:12:41;2.08;;;1.38;;
75603;SDS011;64187;51.010;13.792;2023-07-29T21:17:40;2.17;;;1.40;;
75603;SDS011;64187;51.010;13.792;2023-07-29T21:22:39;2.60;;;1.42;;
75603;SDS011;64187;51.010;13.792;2023-07-29T21:27:38;3.10;;;1.50;;
75603;SDS011;64187;51.010;13.792;2023-07-29T21:32:37;3.25;;;1.35;;
75603;SDS011;64187;51.010;13.792;2023-07-29T21:37:36;2.75;;;1.60;;
75603;SDS011;64187;51.010;13.792;2023-07-29T21:42:35;3.08;;;1.92;;
75603;SDS011;64187;51.010;13.792;2023-07-29T21:47:34;3.80;;;2.40;;
75603;SDS011;64187;51.010;13.792;2023-07-29T21:52:33;3.10;;;2.10;;
75603;SDS011;64187;51.010;13.792;2023-07-29T21:57:32;3.42;;;2.17;;
75603;SDS011;64187;51.010;13.792;2023-07-29T22:02:32;3.75;;;1.85;;
75603;SDS011;64187;51.010;13.792;2023-07-29T22:07:31;3.17;;;1.80;;
75603;SDS011;64187;51.010;13.792;2023-07-29T22:12:29;3.00;;;2.05;;
75603;SDS011;64187;51.010;13.792;2023-07-29T22:17:30;3.38;;;2.20;;
75603;SDS011;64187;51.010;13.792;2023-07-29T22:22:29;3.83;;;2.58;;
75603;SDS011;64187;51.010;13.792;2023-07-29T22:27:27;3.10;;;2.05;;
75603;SDS011;64187;51.010;13.792;2023-07-29T22:32:26;3.63;;;2.80;;
75603;SDS011;64187;51.010;13.792;2023-07-29T22:37:25;3.65;;;2.10;;
75603;SDS011;64187;51.010;13.792;2023-07-29T22:42:24;6.35;;;2.60;;
75603;SDS011;64187;51.010;13.792;2023-07-29T22:47:23;6.05;;;3.63;;
75603;SDS011;64187;51.010;13.792;2023-07-29T22:52:22;5.72;;;3.60;;
75603;SDS011;64187;51.010;13.792;2023-07-29T22:57:21;6.32;;;4.35;;
75603;SDS011;64187;51.010;13.792;2023-07-29T23:02:20;7.20;;;3.90;;
75603;SDS011;64187;51.010;13.792;2023-07-29T23:07:19;5.10;;;3.03;;
75603;SDS011;64187;51.010;13.792;2023-07-29T23:12:18;4.07;;;3.05;;
75603;SDS011;64187;51.010;13.792;2023-07-29T23:17:17;5.25;;;3.30;;
75603;SDS011;64187;51.010;13.792;2023-07-29T23:22:16;4.18;;;3.05;;
75603;SDS011;64187;51.010;13.792;2023-07-29T23:27:15;4.30;;;3.20;;
75603;SDS011;64187;51.010;13.792;2023-07-29T23:32:14;5.70;;;3.20;;
75603;SDS011;64187;51.010;13.792;2023-07-29T23:37:13;4.72;;;3.13;;
75603;SDS011;64187;51.010;13.792;2023-07-29T23:42:12;3.85;;;2.83;;
75603;SDS011;64187;51.010;13.792;2023-07-29T23:47:11;4.57;;;3.08;;
75603;SDS011;64187;51.010;13.792;2023-07-29T23:52:09;5.47;;;2.67;;
75603;SDS011;64187;51.010;13.792;2023-07-29T23:57:08;7.05;;;2.83;;
